sensor_id;sensor_type;location;lat;lon;timestamp;pressure;altitude;pressure_sealevel;temperature;humidity
68965;BME280;56017;48.680;8.998;2023-03-19T00:01:38;96430;;;9.5;71
68965;BME280;56017;48.680;8.998;2023-03-19T00:04:10;96420;;;9.5;70.5
68965;BME280;56017;48.680;8.998;2023-03-19T00:06:40;96420;;;9.6;70.5
68965;BME280;56017;48.680;8.998;2023-03-19T00:11:42;96430;;;9.3;70.5
68965;BME280;56017;48.680;8.998;2023-03-19T00:14:21;96430;;;9.3;70.5
68965;BME280;56017;48.680;8.998;2023-03-19T00:16:46;96430;;;9.3;70.5
68965;BME280;56017;48.680;8.998;2023-03-19T00:19:15;96420;;;9.4;70.5
68965;BME280;56017;48.680;8.998;2023-03-19T00:21:46;96420;;;9.4;71
68965;BME280;56017;48.680;8.998;2023-03-19T00:24:23;96420;;;9.4;71
68965;BME280;56017;48.680;8.998;2023-03-19T00:26:48;96420;;;9.3;71.5
68965;BME280;56017;48.680;8.998;2023-03-19T00:29:27;96420;;;9.4;71
68965;BME280;56017;48.680;8.998;2023-03-19T00:31:50;96420;;;9.5;71
68965;BME280;56017;48.680;8.998;2023-03-19T00:34:27;96420;;;9.7;71
68965;BME280;56017;48.680;8.998;2023-03-19T00:36:52;96420;;;9.7;70.5
68965;BME280;56017;48.680;8.998;2023-03-19T00:39:29;96430;;;9.7;70.5
68965;BME280;56017;48.680;8.998;2023-03-19T00:41:54;96430;;;9.8;70.5
68965;BME280;56017;48.680;8.998;2023-03-19T00:44:32;96430;;;9.8;70.5
68965;BME280;56017;48.680;8.998;2023-03-19T00:46:56;96420;;;9.9;70.5
68965;BME280;56017;48.680;8.998;2023-03-19T00:51:57;96440;;;9.7;71
68965;BME280;56017;48.680;8.998;2023-03-19T00:54:35;96440;;;9.7;71.5
68965;BME280;56017;48.680;8.998;2023-03-19T00:57:00;96440;;;9.8;71
68965;BME280;56017;48.680;8.998;2023-03-19T00:59:30;96450;;;9.9;70.5
68965;BME280;56017;48.680;8.998;2023-03-19T01:04:32;96460;;;10.1;70.5
68965;BME280;56017;48.680;8.998;2023-03-19T01:07:04;96470;;;10.2;70.5
68965;BME280;56017;48.680;8.998;2023-03-19T01:12:06;96480;;;10.1;71
68965;BME280;56017;48.680;8.998;2023-03-19T01:14:43;96480;;;10.2;71
68965;BME280;56017;48.680;8.998;2023-03-19T01:19:38;96480;;;10.5;70.5
68965;BME280;56017;48.680;8.998;2023-03-19T01:22:10;96490;;;10.5;71
68965;BME280;56017;48.680;8.998;2023-03-19T01:24:47;96490;;;10.5;71
68965;BME280;56017;48.680;8.998;2023-03-19T01:27:19;96490;;;10.5;71
68965;BME280;56017;48.680;8.998;2023-03-19T01:29:42;96500;;;10.6;71
68965;BME280;56017;48.680;8.998;2023-03-19T01:32:14;96500;;;10.9;71
68965;BME280;56017;48.680;8.998;2023-03-19T01:34:44;96510;;;11.1;71
68965;BME280;56017;48.680;8.998;2023-03-19T01:37:15;96510;;;11.2;70.5
68965;BME280;56017;48.680;8.998;2023-03-19T01:39:53;96510;;;11.1;71
68965;BME280;56017;48.680;8.998;2023-03-19T01:42:17;96510;;;10.9;71
68965;BME280;56017;48.680;8.998;2023-03-19T01:44:52;96520;;;10.5;71
68965;BME280;56017;48.680;8.998;2023-03-19T01:47:29;96510;;;10;71.5
68965;BME280;56017;48.680;8.998;2023-03-19T01:49:57;96510;;;9.5;72.5
68965;BME280;56017;48.680;8.998;2023-03-19T01:52:21;96500;;;9.2;73
68965;BME280;56017;48.680;8.998;2023-03-19T01:54:52;96500;;;9.1;73
68965;BME280;56017;48.680;8.998;2023-03-19T01:57:23;96510;;;9.1;73
68965;BME280;56017;48.680;8.998;2023-03-19T01:59:54;96500;;;9;73
68965;BME280;56017;48.680;8.998;2023-03-19T02:02:27;96490;;;9;73
68965;BME280;56017;48.680;8.998;2023-03-19T02:05:07;96490;;;9;73
68965;BME280;56017;48.680;8.998;2023-03-19T02:07:28;96480;;;9.1;72.5
68965;BME280;56017;48.680;8.998;2023-03-19T02:09:58;96480;;;9.2;72
68965;BME280;56017;48.680;8.998;2023-03-19T02:12:29;96480;;;9.3;72
68965;BME280;56017;48.680;8.998;2023-03-19T02:15:06;96480;;;9.2;72.5
68965;BME280;56017;48.680;8.998;2023-03-19T02:17:31;96480;;;9.3;72.5
68965;BME280;56017;48.680;8.998;2023-03-19T02:20:12;96500;;;9.4;72.5
68965;BME280;56017;48.680;8.998;2023-03-19T02:27:35;96490;;;9.4;72
68965;BME280;56017;48.680;8.998;2023-03-19T02:30:23;96500;;;9.4;72
68965;BME280;56017;48.680;8.998;2023-03-19T02:32:43;96490;;;9.6;71.5
68965;BME280;56017;48.680;8.998;2023-03-19T02:35:14;96500;;;9.5;71.5
68965;BME280;56017;48.680;8.998;2023-03-19T02:37:38;96500;;;9.5;71.5
68965;BME280;56017;48.680;8.998;2023-03-19T02:40:10;96490;;;9.4;71.5
68965;BME280;56017;48.680;8.998;2023-03-19T02:42:40;96490;;;9.4;71.5
68965;BME280;56017;48.680;8.998;2023-03-19T02:45:11;96500;;;9.5;71.5
68965;BME280;56017;48.680;8.998;2023-03-19T02:47:42;96490;;;9.5;72
68965;BME280;56017;48.680;8.998;2023-03-19T02:50:13;96500;;;9.5;72
68965;BME280;56017;48.680;8.998;2023-03-19T02:52:44;96500;;;9.6;71.5
68965;BME280;56017;48.680;8.998;2023-03-19T02:55:15;96500;;;9.7;71
68965;BME280;56017;48.680;8.998;2023-03-19T02:57:53;96500;;;9.8;71
68965;BME280;56017;48.680;8.998;2023-03-19T03:00:24;96500;;;9.8;71
68965;BME280;56017;48.680;8.998;2023-03-19T03:02:48;96500;;;9.6;71
68965;BME280;56017;48.680;8.998;2023-03-19T03:05:19;96500;;;9.6;71
68965;BME280;56017;48.680;8.998;2023-03-19T03:07:50;96500;;;9.4;71.5
68965;BME280;56017;48.680;8.998;2023-03-19T03:10:28;96500;;;9.4;71.5
68965;BME280;56017;48.680;8.998;2023-03-19T03:12:52;96500;;;9.4;71.5
68965;BME280;56017;48.680;8.998;2023-03-19T03:15:23;96500;;;9.4;71.5
68965;BME280;56017;48.680;8.998;2023-03-19T03:17:54;96500;;;9.5;71
68965;BME280;56017;48.680;8.998;2023-03-19T03:20:25;96510;;;9.5;71
68965;BME280;56017;48.680;8.998;2023-03-19T03:22:56;96500;;;9.6;71
68965;BME280;56017;48.680;8.998;2023-03-19T03:25:27;96510;;;9.6;71
68965;BME280;56017;48.680;8.998;2023-03-19T03:28:05;96500;;;9.5;71
68965;BME280;56017;48.680;8.998;2023-03-19T03:30:29;96500;;;9.4;71.5
68965;BME280;56017;48.680;8.998;2023-03-19T03:33:00;96500;;;9.5;71.5
68965;BME280;56017;48.680;8.998;2023-03-19T03:35:31;96500;;;9.5;71
68965;BME280;56017;48.680;8.998;2023-03-19T03:38:02;96500;;;9.6;71
68965;BME280;56017;48.680;8.998;2023-03-19T03:40:33;96510;;;9.6;71
68965;BME280;56017;48.680;8.998;2023-03-19T03:43:04;96500;;;9.7;71
68965;BME280;56017;48.680;8.998;2023-03-19T03:45:37;96510;;;9.7;71
68965;BME280;56017;48.680;8.998;2023-03-19T03:48:13;96510;;;9.6;71.5
68965;BME280;56017;48.680;8.998;2023-03-19T03:50:43;96510;;;9.6;71.5
68965;BME280;56017;48.680;8.998;2023-03-19T03:53:08;96510;;;9.6;71
68965;BME280;56017;48.680;8.998;2023-03-19T03:55:39;96520;;;9.6;71
68965;BME280;56017;48.680;8.998;2023-03-19T03:58:16;96520;;;9.5;71
68965;BME280;56017;48.680;8.998;2023-03-19T04:00:41;96510;;;9.4;71.5
68965;BME280;56017;48.680;8.998;2023-03-19T04:03:11;96520;;;9.4;72
68965;BME280;56017;48.680;8.998;2023-03-19T04:05:43;96510;;;9.5;71.5
68965;BME280;56017;48.680;8.998;2023-03-19T04:08:13;96520;;;9.7;71
68965;BME280;56017;48.680;8.998;2023-03-19T04:10:44;96520;;;9.6;70.5
68965;BME280;56017;48.680;8.998;2023-03-19T04:13:15;96520;;;9.5;71
68965;BME280;56017;48.680;8.998;2023-03-19T04:15:46;96530;;;9.6;71.5
68965;BME280;56017;48.680;8.998;2023-03-19T04:18:17;96530;;;9.7;71
68965;BME280;56017;48.680;8.998;2023-03-19T04:20:48;96530;;;9.7;71
68965;BME280;56017;48.680;8.998;2023-03-19T04:23:19;96530;;;9.8;70.5
68965;BME280;56017;48.680;8.998;2023-03-19T04:25:50;96540;;;9.8;71
68965;BME280;56017;48.680;8.998;2023-03-19T04:28:21;96540;;;9.8;71
68965;BME280;56017;48.680;8.998;2023-03-19T04:30:52;96540;;;9.8;71
68965;BME280;56017;48.680;8.998;2023-03-19T04:33:29;96540;;;9.6;71.5
68965;BME280;56017;48.680;8.998;2023-03-19T04:36:00;96540;;;9.7;71.5
68965;BME280;56017;48.680;8.998;2023-03-19T04:38:24;96540;;;9.6;71.5
68965;BME280;56017;48.680;8.998;2023-03-19T04:40:55;96540;;;9.5;72
68965;BME280;56017;48.680;8.998;2023-03-19T04:43:26;96540;;;9.4;72
68965;BME280;56017;48.680;8.998;2023-03-19T04:45:57;96550;;;9.5;72
68965;BME280;56017;48.680;8.998;2023-03-19T04:48:36;96550;;;9.5;72
68965;BME280;56017;48.680;8.998;2023-03-19T04:50:59;96550;;;9.5;72
68965;BME280;56017;48.680;8.998;2023-03-19T04:56:01;96550;;;9.6;72
68965;BME280;56017;48.680;8.998;2023-03-19T04:58:32;96550;;;9.7;71.5
68965;BME280;56017;48.680;8.998;2023-03-19T05:01:03;96550;;;9.6;72
68965;BME280;56017;48.680;8.998;2023-03-19T05:03:35;96550;;;9.4;72.5
68965;BME280;56017;48.680;8.998;2023-03-19T05:06:12;96560;;;9.4;72.5
68965;BME280;56017;48.680;8.998;2023-03-19T05:08:36;96560;;;9.6;72
68965;BME280;56017;48.680;8.998;2023-03-19T05:11:07;96560;;;9.7;72
68965;BME280;56017;48.680;8.998;2023-03-19T05:13:38;96560;;;9.6;72
68965;BME280;56017;48.680;8.998;2023-03-19T05:16:09;96560;;;9.5;72
68965;BME280;56017;48.680;8.998;2023-03-19T05:18:40;96560;;;9.6;72
68965;BME280;56017;48.680;8.998;2023-03-19T05:21:11;96560;;;9.6;71.5
68965;BME280;56017;48.680;8.998;2023-03-19T05:23:42;96570;;;9.6;71.5
68965;BME280;56017;48.680;8.998;2023-03-19T05:26:19;96560;;;9.6;71.5
68965;BME280;56017;48.680;8.998;2023-03-19T05:28:44;96570;;;9.6;71.5
68965;BME280;56017;48.680;8.998;2023-03-19T05:31:21;96560;;;9.7;71
68965;BME280;56017;48.680;8.998;2023-03-19T05:33:46;96560;;;9.7;71.5
68965;BME280;56017;48.680;8.998;2023-03-19T05:36:17;96560;;;9.5;72
68965;BME280;56017;48.680;8.998;2023-03-19T05:38:48;96570;;;9.4;72
68965;BME280;56017;48.680;8.998;2023-03-19T05:41:26;96570;;;9.2;72.5
68965;BME280;56017;48.680;8.998;2023-03-19T05:43:50;96570;;;9.2;72.5
68965;BME280;56017;48.680;8.998;2023-03-19T05:46:21;96570;;;9.2;72.5
68965;BME280;56017;48.680;8.998;2023-03-19T05:48:53;96580;;;9.3;72
68965;BME280;56017;48.680;8.998;2023-03-19T05:51:23;96580;;;9.2;72.5
68965;BME280;56017;48.680;8.998;2023-03-19T05:53:54;96590;;;9.2;72
68965;BME280;56017;48.680;8.998;2023-03-19T05:56:25;96590;;;9.2;72.5
68965;BME280;56017;48.680;8.998;2023-03-19T05:58:56;96590;;;9.2;72.5
68965;BME280;56017;48.680;8.998;2023-03-19T06:01:27;96590;;;9.2;72.5
68965;BME280;56017;48.680;8.998;2023-03-19T06:03:57;96590;;;9.2;72.5
68965;BME280;56017;48.680;8.998;2023-03-19T06:06:28;96590;;;9.2;72.5
68965;BME280;56017;48.680;8.998;2023-03-19T06:08:59;96600;;;9.3;72.5
68965;BME280;56017;48.680;8.998;2023-03-19T06:11:30;96600;;;9.3;72.5
68965;BME280;56017;48.680;8.998;2023-03-19T06:14:08;96600;;;9.3;72.5
68965;BME280;56017;48.680;8.998;2023-03-19T06:16:32;96600;;;9.4;72.5
68965;BME280;56017;48.680;8.998;2023-03-19T06:19:03;96610;;;9.6;72
68965;BME280;56017;48.680;8.998;2023-03-19T06:21:41;96600;;;9.7;71.5
68965;BME280;56017;48.680;8.998;2023-03-19T06:26:36;96610;;;9.5;71.5
68965;BME280;56017;48.680;8.998;2023-03-19T06:29:07;96600;;;9.6;71.5
68965;BME280;56017;48.680;8.998;2023-03-19T06:31:38;96600;;;9.7;71.5
68965;BME280;56017;48.680;8.998;2023-03-19T06:34:09;96600;;;9.7;71.5
68965;BME280;56017;48.680;8.998;2023-03-19T06:36:40;96600;;;9.8;71
68965;BME280;56017;48.680;8.998;2023-03-19T06:39:18;96600;;;9.8;71
68965;BME280;56017;48.680;8.998;2023-03-19T06:41:42;96600;;;9.7;71.5
68965;BME280;56017;48.680;8.998;2023-03-19T06:44:13;96600;;;9.8;72
68965;BME280;56017;48.680;8.998;2023-03-19T06:46:44;96600;;;9.9;72
68965;BME280;56017;48.680;8.998;2023-03-19T06:49:15;96600;;;10;72
68965;BME280;56017;48.680;8.998;2023-03-19T06:51:46;96600;;;10.1;72
68965;BME280;56017;48.680;8.998;2023-03-19T06:54:17;96600;;;10.1;72
68965;BME280;56017;48.680;8.998;2023-03-19T06:56:48;96590;;;10.1;72
68965;BME280;56017;48.680;8.998;2023-03-19T06:59:19;96590;;;10.2;72
68965;BME280;56017;48.680;8.998;2023-03-19T07:01:50;96600;;;10.3;72
68965;BME280;56017;48.680;8.998;2023-03-19T07:04:21;96600;;;10.4;71.5
68965;BME280;56017;48.680;8.998;2023-03-19T07:06:52;96590;;;10.5;71.5
68965;BME280;56017;48.680;8.998;2023-03-19T07:09:23;96600;;;10.6;71.5
68965;BME280;56017;48.680;8.998;2023-03-19T07:11:54;96600;;;10.7;71.5
68965;BME280;56017;48.680;8.998;2023-03-19T07:14:25;96600;;;10.8;71.5
68965;BME280;56017;48.680;8.998;2023-03-19T07:16:56;96600;;;10.9;71.5
68965;BME280;56017;48.680;8.998;2023-03-19T07:19:27;96610;;;11;71.5
68965;BME280;56017;48.680;8.998;2023-03-19T07:21:58;96600;;;11;71.5
68965;BME280;56017;48.680;8.998;2023-03-19T07:24:29;96600;;;11.1;71.5
68965;BME280;56017;48.680;8.998;2023-03-19T07:27:00;96610;;;11.2;71.5
68965;BME280;56017;48.680;8.998;2023-03-19T07:29:31;96610;;;11.3;71.5
68965;BME280;56017;48.680;8.998;2023-03-19T07:32:02;96610;;;11.4;71.5
68965;BME280;56017;48.680;8.998;2023-03-19T07:34:33;96610;;;11.5;71.5
68965;BME280;56017;48.680;8.998;2023-03-19T07:37:04;96610;;;11.6;71.5
68965;BME280;56017;48.680;8.998;2023-03-19T07:39:35;96620;;;11.7;71.5
68965;BME280;56017;48.680;8.998;2023-03-19T07:42:05;96610;;;11.9;71.5
68965;BME280;56017;48.680;8.998;2023-03-19T07:44:36;96620;;;11.9;71
68965;BME280;56017;48.680;8.998;2023-03-19T07:47:07;96620;;;12;71
68965;BME280;56017;48.680;8.998;2023-03-19T07:49:38;96620;;;12.1;71
68965;BME280;56017;48.680;8.998;2023-03-19T07:52:09;96620;;;12.2;71
68965;BME280;56017;48.680;8.998;2023-03-19T07:54:40;96620;;;12.1;71
68965;BME280;56017;48.680;8.998;2023-03-19T07:57:18;96620;;;12.1;71
68965;BME280;56017;48.680;8.998;2023-03-19T07:59:42;96620;;;12.1;71.5
68965;BME280;56017;48.680;8.998;2023-03-19T08:02:20;96610;;;12.1;71.5
68965;BME280;56017;48.680;8.998;2023-03-19T08:04:44;96610;;;12.2;71.5
68965;BME280;56017;48.680;8.998;2023-03-19T08:07:15;96610;;;12.2;71.5
68965;BME280;56017;48.680;8.998;2023-03-19T08:09:46;96610;;;12.3;71.5
68965;BME280;56017;48.680;8.998;2023-03-19T08:12:17;96610;;;12.5;71.5
68965;BME280;56017;48.680;8.998;2023-03-19T08:14:48;96620;;;12.7;71
68965;BME280;56017;48.680;8.998;2023-03-19T08:17:26;96610;;;12.8;71
68965;BME280;56017;48.680;8.998;2023-03-19T08:19:50;96610;;;13;71
68965;BME280;56017;48.680;8.998;2023-03-19T08:22:21;96620;;;13.1;71
68965;BME280;56017;48.680;8.998;2023-03-19T08:24:51;96620;;;13.2;71
68965;BME280;56017;48.680;8.998;2023-03-19T08:27:29;96620;;;13.3;71
68965;BME280;56017;48.680;8.998;2023-03-19T08:29:53;96620;;;13.4;71
68965;BME280;56017;48.680;8.998;2023-03-19T08:32:31;96620;;;13.3;71
68965;BME280;56017;48.680;8.998;2023-03-19T08:34:55;96620;;;13.2;71
68965;BME280;56017;48.680;8.998;2023-03-19T08:37:27;96620;;;13.2;71
68965;BME280;56017;48.680;8.998;2023-03-19T08:39:57;96620;;;13.2;71.5
68965;BME280;56017;48.680;8.998;2023-03-19T08:42:28;96620;;;13.2;71
68965;BME280;56017;48.680;8.998;2023-03-19T08:44:59;96620;;;13.1;71.5
68965;BME280;56017;48.680;8.998;2023-03-19T08:47:37;96620;;;13;71.5
68965;BME280;56017;48.680;8.998;2023-03-19T08:50:02;96620;;;13;71.5
68965;BME280;56017;48.680;8.998;2023-03-19T08:52:39;96630;;;13.1;72
68965;BME280;56017;48.680;8.998;2023-03-19T08:55:03;96630;;;13.3;72
68965;BME280;56017;48.680;8.998;2023-03-19T08:57:34;96620;;;13.5;71.5
68965;BME280;56017;48.680;8.998;2023-03-19T09:00:05;96630;;;13.5;71.5
68965;BME280;56017;48.680;8.998;2023-03-19T09:02:36;96630;;;13.6;71.5
68965;BME280;56017;48.680;8.998;2023-03-19T09:05:07;96630;;;13.5;71.5
68965;BME280;56017;48.680;8.998;2023-03-19T09:07:44;96630;;;13.5;71.5
68965;BME280;56017;48.680;8.998;2023-03-19T09:10:09;96630;;;13.5;71.5
68965;BME280;56017;48.680;8.998;2023-03-19T09:12:40;96630;;;13.6;71.5
68965;BME280;56017;48.680;8.998;2023-03-19T09:15:12;96630;;;13.6;71.5
68965;BME280;56017;48.680;8.998;2023-03-19T09:17:42;96630;;;13.5;71.5
68965;BME280;56017;48.680;8.998;2023-03-19T09:20:13;96630;;;13.4;71.5
68965;BME280;56017;48.680;8.998;2023-03-19T09:22:44;96640;;;13.5;72
68965;BME280;56017;48.680;8.998;2023-03-19T09:25:15;96630;;;13.6;72
68965;BME280;56017;48.680;8.998;2023-03-19T09:27:46;96640;;;13.8;72
68965;BME280;56017;48.680;8.998;2023-03-19T09:30:17;96630;;;14.1;71.5
68965;BME280;56017;48.680;8.998;2023-03-19T09:32:48;96640;;;14.5;71.5
68965;BME280;56017;48.680;8.998;2023-03-19T09:35:19;96630;;;14.6;71.5
68965;BME280;56017;48.680;8.998;2023-03-19T09:37:50;96620;;;14.9;71.5
68965;BME280;56017;48.680;8.998;2023-03-19T09:40:28;96610;;;15.1;71.5
68965;BME280;56017;48.680;8.998;2023-03-19T09:42:54;96610;;;15.2;71
68965;BME280;56017;48.680;8.998;2023-03-19T09:45:22;96620;;;15.1;71
68965;BME280;56017;48.680;8.998;2023-03-19T09:47:55;96620;;;15;71.5
68965;BME280;56017;48.680;8.998;2023-03-19T09:50:25;96620;;;15;71.5
68965;BME280;56017;48.680;8.998;2023-03-19T09:53:05;96620;;;15.6;72.5
68965;BME280;56017;48.680;8.998;2023-03-19T09:55:37;96610;;;15.8;71.5
68965;BME280;56017;48.680;8.998;2023-03-19T09:58:08;96610;;;15.7;71
68965;BME280;56017;48.680;8.998;2023-03-19T10:00:29;96600;;;15.3;71.5
68965;BME280;56017;48.680;8.998;2023-03-19T10:03:21;96610;;;15.1;72
68965;BME280;56017;48.680;8.998;2023-03-19T10:05:49;96610;;;15.3;72.5
68965;BME280;56017;48.680;8.998;2023-03-19T10:08:06;96600;;;15.6;72
68965;BME280;56017;48.680;8.998;2023-03-19T10:10:41;96600;;;15.9;71.5
68965;BME280;56017;48.680;8.998;2023-03-19T10:13:15;96600;;;16.3;72.5
68965;BME280;56017;48.680;8.998;2023-03-19T10:15:34;96600;;;16.8;72
68965;BME280;56017;48.680;8.998;2023-03-19T10:18:22;96600;;;16.9;71
68965;BME280;56017;48.680;8.998;2023-03-19T10:20:40;96600;;;16.7;70.5
68965;BME280;56017;48.680;8.998;2023-03-19T10:23:25;96600;;;16.6;71
68965;BME280;56017;48.680;8.998;2023-03-19T10:25:38;96600;;;16.8;71.5
68965;BME280;56017;48.680;8.998;2023-03-19T10:28:11;96600;;;16.9;70.5
68965;BME280;56017;48.680;8.998;2023-03-19T10:30:40;96590;;;16.5;71
68965;BME280;56017;48.680;8.998;2023-03-19T10:33:14;96590;;;16.6;71.5
68965;BME280;56017;48.680;8.998;2023-03-19T10:35:43;96600;;;17.2;72
68965;BME280;56017;48.680;8.998;2023-03-19T10:38:21;96590;;;17.4;70.5
68965;BME280;56017;48.680;8.998;2023-03-19T10:43:15;96590;;;17.2;71
68965;BME280;56017;48.680;8.998;2023-03-19T10:45:47;96590;;;17.2;71
68965;BME280;56017;48.680;8.998;2023-03-19T10:50:49;96580;;;17.4;71.5
68965;BME280;56017;48.680;8.998;2023-03-19T10:53:23;96570;;;17.6;70.5
68965;BME280;56017;48.680;8.998;2023-03-19T10:55:52;96580;;;17.8;70.5
68965;BME280;56017;48.680;8.998;2023-03-19T10:58:22;96580;;;17.8;70.5
68965;BME280;56017;48.680;8.998;2023-03-19T11:01:08;96570;;;17.5;70.5
68965;BME280;56017;48.680;8.998;2023-03-19T11:03:31;96570;;;17.3;70.5
68965;BME280;56017;48.680;8.998;2023-03-19T11:06:02;96580;;;16.8;71
68965;BME280;56017;48.680;8.998;2023-03-19T11:08:25;96570;;;16.7;71.5
68965;BME280;56017;48.680;8.998;2023-03-19T11:10:56;96580;;;16.8;71.5
68965;BME280;56017;48.680;8.998;2023-03-19T11:13:27;96580;;;16.9;72
68965;BME280;56017;48.680;8.998;2023-03-19T11:15:58;96580;;;17;71.5
68965;BME280;56017;48.680;8.998;2023-03-19T11:18:30;96580;;;16.9;71.5
68965;BME280;56017;48.680;8.998;2023-03-19T11:21:00;96580;;;17.1;72
68965;BME280;56017;48.680;8.998;2023-03-19T11:23:36;96580;;;17.3;71.5
68965;BME280;56017;48.680;8.998;2023-03-19T11:26:01;96580;;;17.6;71.5
68965;BME280;56017;48.680;8.998;2023-03-19T11:28:40;96580;;;17.8;71
68965;BME280;56017;48.680;8.998;2023-03-19T11:31:20;96570;;;18.2;71
68965;BME280;56017;48.680;8.998;2023-03-19T11:34:07;96570;;;18.5;70.5
68965;BME280;56017;48.680;8.998;2023-03-19T11:36:22;96570;;;18.2;70
68965;BME280;56017;48.680;8.998;2023-03-19T11:38:39;96570;;;17.7;71
68965;BME280;56017;48.680;8.998;2023-03-19T11:41:10;96570;;;17.2;71.5
68965;BME280;56017;48.680;8.998;2023-03-19T11:43:47;96570;;;17;72
68965;BME280;56017;48.680;8.998;2023-03-19T11:46:15;96570;;;16.9;72.5
68965;BME280;56017;48.680;8.998;2023-03-19T11:48:53;96570;;;17.1;72
68965;BME280;56017;48.680;8.998;2023-03-19T11:51:21;96560;;;17.1;72
68965;BME280;56017;48.680;8.998;2023-03-19T11:53:52;96560;;;17.5;72.5
68965;BME280;56017;48.680;8.998;2023-03-19T11:56:24;96550;;;17.8;72
68965;BME280;56017;48.680;8.998;2023-03-19T11:58:57;96550;;;18;71.5
68965;BME280;56017;48.680;8.998;2023-03-19T12:01:52;96560;;;17.8;71.5
68965;BME280;56017;48.680;8.998;2023-03-19T12:03:56;96550;;;17.5;71.5
68965;BME280;56017;48.680;8.998;2023-03-19T12:06:23;96550;;;17.3;72
68965;BME280;56017;48.680;8.998;2023-03-19T12:08:49;96540;;;17.3;72
68965;BME280;56017;48.680;8.998;2023-03-19T12:11:23;96540;;;17.6;72
68965;BME280;56017;48.680;8.998;2023-03-19T12:13:56;96540;;;18.2;71.5
68965;BME280;56017;48.680;8.998;2023-03-19T12:16:27;96540;;;18.6;71
68965;BME280;56017;48.680;8.998;2023-03-19T12:21:40;96530;;;18.1;71.5
68965;BME280;56017;48.680;8.998;2023-03-19T12:24:06;96540;;;17.9;71.5
68965;BME280;56017;48.680;8.998;2023-03-19T12:26:28;96530;;;17.4;72
68965;BME280;56017;48.680;8.998;2023-03-19T12:29:02;96530;;;17.1;72.5
68965;BME280;56017;48.680;8.998;2023-03-19T12:31:29;96530;;;16.9;72.5
68965;BME280;56017;48.680;8.998;2023-03-19T12:34:18;96530;;;16.8;72.5
68965;BME280;56017;48.680;8.998;2023-03-19T12:36:29;96520;;;16.7;73
68965;BME280;56017;48.680;8.998;2023-03-19T12:39:01;96530;;;16.7;73
68965;BME280;56017;48.680;8.998;2023-03-19T12:41:31;96540;;;16.6;73
68965;BME280;56017;48.680;8.998;2023-03-19T12:44:03;96540;;;16.6;73
68965;BME280;56017;48.680;8.998;2023-03-19T12:46:33;96550;;;16.6;73
68965;BME280;56017;48.680;8.998;2023-03-19T12:49:05;96550;;;16.3;73.5
68965;BME280;56017;48.680;8.998;2023-03-19T12:51:43;96550;;;16.3;73.5
68965;BME280;56017;48.680;8.998;2023-03-19T12:56:38;96540;;;16.4;73.5
68965;BME280;56017;48.680;8.998;2023-03-19T13:01:43;96530;;;16.7;73.5
68965;BME280;56017;48.680;8.998;2023-03-19T13:06:42;96530;;;17.2;73
68965;BME280;56017;48.680;8.998;2023-03-19T13:09:39;96530;;;17.8;72.5
68965;BME280;56017;48.680;8.998;2023-03-19T13:11:48;96530;;;18.3;72.5
68965;BME280;56017;48.680;8.998;2023-03-19T13:14:15;96520;;;18.7;71.5
68965;BME280;56017;48.680;8.998;2023-03-19T13:16:47;96530;;;18.5;71
68965;BME280;56017;48.680;8.998;2023-03-19T13:19:20;96530;;;18.2;71.5
68965;BME280;56017;48.680;8.998;2023-03-19T13:21:47;96530;;;18;71.5
68965;BME280;56017;48.680;8.998;2023-03-19T13:24:19;96520;;;17.5;72.5
68965;BME280;56017;48.680;8.998;2023-03-19T13:26:48;96520;;;17.3;72.5
68965;BME280;56017;48.680;8.998;2023-03-19T13:29:20;96530;;;17.2;73
68965;BME280;56017;48.680;8.998;2023-03-19T13:31:50;96530;;;17.1;73
68965;BME280;56017;48.680;8.998;2023-03-19T13:34:28;96540;;;16.8;73.5
68965;BME280;56017;48.680;8.998;2023-03-19T13:36:53;96540;;;16.7;73.5
68965;BME280;56017;48.680;8.998;2023-03-19T13:39:24;96540;;;16.7;74
68965;BME280;56017;48.680;8.998;2023-03-19T13:42:05;96540;;;17.2;73
68965;BME280;56017;48.680;8.998;2023-03-19T13:47:34;96540;;;17.2;73
68965;BME280;56017;48.680;8.998;2023-03-19T13:54:37;96540;;;16.9;73
68965;BME280;56017;48.680;8.998;2023-03-19T13:57:02;96540;;;16.6;73.5
68965;BME280;56017;48.680;8.998;2023-03-19T14:02:03;96540;;;16.2;73.5
68965;BME280;56017;48.680;8.998;2023-03-19T14:04:33;96550;;;16.2;73.5
68965;BME280;56017;48.680;8.998;2023-03-19T14:07:11;96540;;;16.1;73.5
68965;BME280;56017;48.680;8.998;2023-03-19T14:09:42;96540;;;16;73.5
68965;BME280;56017;48.680;8.998;2023-03-19T14:12:21;96540;;;16;73.5
68965;BME280;56017;48.680;8.998;2023-03-19T14:15:15;96520;;;16.2;73.5
68965;BME280;56017;48.680;8.998;2023-03-19T14:17:12;96530;;;16.3;73.5
68965;BME280;56017;48.680;8.998;2023-03-19T14:19:39;96530;;;16.5;73.5
68965;BME280;56017;48.680;8.998;2023-03-19T14:27:13;96520;;;16.2;73.5
68965;BME280;56017;48.680;8.998;2023-03-19T14:29:43;96520;;;16.1;72.5
68965;BME280;56017;48.680;8.998;2023-03-19T14:32:21;96530;;;16;72.5
68965;BME280;56017;48.680;8.998;2023-03-19T14:34:44;96520;;;15.9;73
68965;BME280;56017;48.680;8.998;2023-03-19T14:37:47;96530;;;15.8;72.5
68965;BME280;56017;48.680;8.998;2023-03-19T14:39:56;96530;;;15.8;73
68965;BME280;56017;48.680;8.998;2023-03-19T14:44:56;96530;;;15.8;73
68965;BME280;56017;48.680;8.998;2023-03-19T14:47:32;96520;;;15.8;73
68965;BME280;56017;48.680;8.998;2023-03-19T14:49:53;96520;;;15.8;73
68965;BME280;56017;48.680;8.998;2023-03-19T14:52:24;96520;;;15.8;72.5
68965;BME280;56017;48.680;8.998;2023-03-19T14:54:54;96530;;;15.8;72.5
68965;BME280;56017;48.680;8.998;2023-03-19T14:57:28;96520;;;15.9;72.5
68965;BME280;56017;48.680;8.998;2023-03-19T15:02:33;96520;;;15.9;72.5
68965;BME280;56017;48.680;8.998;2023-03-19T15:07:30;96530;;;15.8;72.5
68965;BME280;56017;48.680;8.998;2023-03-19T15:09:58;96530;;;15.8;72.5
68965;BME280;56017;48.680;8.998;2023-03-19T15:12:31;96520;;;15.9;72.5
68965;BME280;56017;48.680;8.998;2023-03-19T15:15:06;96520;;;15.8;72
68965;BME280;56017;48.680;8.998;2023-03-19T15:17:31;96520;;;15.9;72
68965;BME280;56017;48.680;8.998;2023-03-19T15:20:13;96530;;;15.8;72
68965;BME280;56017;48.680;8.998;2023-03-19T15:22:33;96530;;;15.7;72.5
68965;BME280;56017;48.680;8.998;2023-03-19T15:25:05;96530;;;15.6;72.5
68965;BME280;56017;48.680;8.998;2023-03-19T15:27:44;96530;;;15.5;72.5
68965;BME280;56017;48.680;8.998;2023-03-19T15:32:38;96540;;;15.2;72.5
68965;BME280;56017;48.680;8.998;2023-03-19T15:35:07;96540;;;15;73
68965;BME280;56017;48.680;8.998;2023-03-19T15:37:39;96550;;;14.9;73.5